sensor_id;sensor_type;location;lat;lon;timestamp;pressure;altitude;pressure_sealevel;temperature;humidity
12757;BME280;31601;48.042;12.240;2023-03-25T00:00:48;95700.50;;;10.71;64.89
12757;BME280;31601;48.042;12.240;2023-03-25T00:03:17;95702.28;;;10.70;64.65
12757;BME280;31601;48.042;12.240;2023-03-25T00:05:44;95694.00;;;10.67;64.57
12757;BME280;31601;48.042;12.240;2023-03-25T00:08:12;95697.25;;;10.69;64.13
12757;BME280;31601;48.042;12.240;2023-03-25T00:10:38;95694.31;;;10.37;64.62
12757;BME280;31601;48.042;12.240;2023-03-25T00:13:05;95698.38;;;10.46;64.45
12757;BME280;31601;48.042;12.240;2023-03-25T00:15:32;95694.34;;;10.44;64.55
12757;BME280;31601;48.042;12.240;2023-03-25T00:17:59;95696.34;;;10.42;64.85
12757;BME280;31601;48.042;12.240;2023-03-25T00:20:26;95695.97;;;10.45;64.75
12757;BME280;31601;48.042;12.240;2023-03-25T00:22:53;95700.50;;;10.29;65.21
12757;BME280;31601;48.042;12.240;2023-03-25T00:25:21;95694.31;;;10.37;65.07
12757;BME280;31601;48.042;12.240;2023-03-25T00:27:48;95693.72;;;10.35;64.98
12757;BME280;31601;48.042;12.240;2023-03-25T00:30:16;95701.19;;;10.38;64.95
12757;BME280;31601;48.042;12.240;2023-03-25T00:32:43;95697.50;;;10.32;64.68
12757;BME280;31601;48.042;12.240;2023-03-25T00:35:14;95697.34;;;10.34;64.73
12757;BME280;31601;48.042;12.240;2023-03-25T00:37:41;95697.28;;;10.27;64.45
12757;BME280;31601;48.042;12.240;2023-03-25T00:40:10;95699.47;;;10.24;64.44
12757;BME280;31601;48.042;12.240;2023-03-25T00:42:38;95696.66;;;10.25;64.56
12757;BME280;31601;48.042;12.240;2023-03-25T00:45:09;95687.97;;;10.25;63.90
12757;BME280;31601;48.042;12.240;2023-03-25T00:47:36;95696.16;;;10.08;64.43
12757;BME280;31601;48.042;12.240;2023-03-25T00:50:03;95679.22;;;10.04;64.50
12757;BME280;31601;48.042;12.240;2023-03-25T00:52:30;95684.50;;;10.11;64.46
12757;BME280;31601;48.042;12.240;2023-03-25T00:54:56;95685.47;;;10.10;64.60
12757;BME280;31601;48.042;12.240;2023-03-25T00:57:23;95684.09;;;10.14;63.74
12757;BME280;31601;48.042;12.240;2023-03-25T00:59:50;95674.97;;;10.03;64.06
12757;BME280;31601;48.042;12.240;2023-03-25T01:02:17;95679.38;;;9.96;63.98
12757;BME280;31601;48.042;12.240;2023-03-25T01:04:45;95681.59;;;9.99;63.76
12757;BME280;31601;48.042;12.240;2023-03-25T01:07:13;95683.97;;;9.87;64.71
12757;BME280;31601;48.042;12.240;2023-03-25T01:09:40;95668.25;;;9.87;64.22
12757;BME280;31601;48.042;12.240;2023-03-25T01:12:09;95680.31;;;9.88;64.45
12757;BME280;31601;48.042;12.240;2023-03-25T01:14:36;95678.09;;;9.85;64.42
12757;BME280;31601;48.042;12.240;2023-03-25T01:17:04;95683.09;;;9.80;64.54
12757;BME280;31601;48.042;12.240;2023-03-25T01:19:30;95675.09;;;9.88;64.52
12757;BME280;31601;48.042;12.240;2023-03-25T01:21:57;95682.44;;;9.71;64.78
12757;BME280;31601;48.042;12.240;2023-03-25T01:24:24;95685.88;;;9.72;64.53
12757;BME280;31601;48.042;12.240;2023-03-25T01:26:50;95679.44;;;9.74;64.77
12757;BME280;31601;48.042;12.240;2023-03-25T01:29:18;95679.25;;;9.76;64.84
12757;BME280;31601;48.042;12.240;2023-03-25T01:31:45;95668.34;;;9.72;65.03
12757;BME280;31601;48.042;12.240;2023-03-25T01:34:14;95665.53;;;9.74;64.68
12757;BME280;31601;48.042;12.240;2023-03-25T01:36:41;95666.91;;;9.70;64.38
12757;BME280;31601;48.042;12.240;2023-03-25T01:39:12;95670.16;;;9.72;64.63
12757;BME280;31601;48.042;12.240;2023-03-25T01:41:41;95670.63;;;9.82;64.31
12757;BME280;31601;48.042;12.240;2023-03-25T01:45:02;95660.19;;;9.89;63.70
12757;BME280;31601;48.042;12.240;2023-03-25T01:46:59;95658.19;;;9.91;63.44
12757;BME280;31601;48.042;12.240;2023-03-25T01:49:31;95658.78;;;9.93;63.52
12757;BME280;31601;48.042;12.240;2023-03-25T01:52:05;95656.94;;;9.86;63.70
12757;BME280;31601;48.042;12.240;2023-03-25T01:54:34;95651.63;;;9.73;63.67
12757;BME280;31601;48.042;12.240;2023-03-25T01:57:03;95651.16;;;9.63;63.81
12757;BME280;31601;48.042;12.240;2023-03-25T01:59:31;95643.50;;;9.61;63.91
12757;BME280;31601;48.042;12.240;2023-03-25T02:02:00;95644.88;;;9.57;64.01
12757;BME280;31601;48.042;12.240;2023-03-25T02:04:32;95639.81;;;9.56;63.89
12757;BME280;31601;48.042;12.240;2023-03-25T02:07:03;95640.69;;;9.63;63.50
12757;BME280;31601;48.042;12.240;2023-03-25T02:09:32;95640.69;;;9.63;63.23
12757;BME280;31601;48.042;12.240;2023-03-25T02:11:59;95642.13;;;9.65;62.97
12757;BME280;31601;48.042;12.240;2023-03-25T02:14:28;95638.66;;;9.58;63.24
12757;BME280;31601;48.042;12.240;2023-03-25T02:17:05;95642.69;;;9.61;63.02
12757;BME280;31601;48.042;12.240;2023-03-25T02:25:57;95634.78;;;9.89;62.70
12757;BME280;31601;48.042;12.240;2023-03-25T02:28:32;95633.22;;;9.95;62.79
12757;BME280;31601;48.042;12.240;2023-03-25T02:31:12;95632.47;;;10.08;61.99
12757;BME280;31601;48.042;12.240;2023-03-25T02:34:00;95650.69;;;10.23;61.57
12757;BME280;31601;48.042;12.240;2023-03-25T02:37:00;95645.06;;;10.32;61.11
12757;BME280;31601;48.042;12.240;2023-03-25T02:39:34;95647.06;;;10.30;61.15
12757;BME280;31601;48.042;12.240;2023-03-25T02:42:09;95647.53;;;10.41;60.58
12757;BME280;31601;48.042;12.240;2023-03-25T02:44:40;95642.53;;;10.46;59.93
12757;BME280;31601;48.042;12.240;2023-03-25T02:47:10;95650.19;;;10.47;60.01
12757;BME280;31601;48.042;12.240;2023-03-25T02:49:41;95644.50;;;10.37;60.13
12757;BME280;31601;48.042;12.240;2023-03-25T02:52:13;95648.38;;;10.48;59.74
12757;BME280;31601;48.042;12.240;2023-03-25T02:54:43;95644.72;;;10.42;60.13
12757;BME280;31601;48.042;12.240;2023-03-25T02:57:14;95647.75;;;10.46;60.12
12757;BME280;31601;48.042;12.240;2023-03-25T02:59:44;95648.56;;;10.46;60.00
12757;BME280;31601;48.042;12.240;2023-03-25T03:02:12;95645.53;;;10.43;60.33
12757;BME280;31601;48.042;12.240;2023-03-25T03:04:47;95657.44;;;10.45;60.31
12757;BME280;31601;48.042;12.240;2023-03-25T03:07:20;95660.44;;;10.42;60.50
12757;BME280;31601;48.042;12.240;2023-03-25T03:09:56;95649.34;;;10.33;60.42
12757;BME280;31601;48.042;12.240;2023-03-25T03:12:44;95656.81;;;10.43;60.40
12757;BME280;31601;48.042;12.240;2023-03-25T03:15:23;95657.56;;;10.30;60.01
12757;BME280;31601;48.042;12.240;2023-03-25T03:18:03;95660.97;;;10.31;59.86
12757;BME280;31601;48.042;12.240;2023-03-25T03:20:36;95667.53;;;10.55;59.37
12757;BME280;31601;48.042;12.240;2023-03-25T03:23:08;95673.63;;;10.62;58.43
12757;BME280;31601;48.042;12.240;2023-03-25T03:25:45;95669.00;;;10.71;57.90
12757;BME280;31601;48.042;12.240;2023-03-25T03:28:15;95667.78;;;10.60;57.92
12757;BME280;31601;48.042;12.240;2023-03-25T03:30:48;95652.44;;;10.70;57.76
12757;BME280;31601;48.042;12.240;2023-03-25T03:33:20;95658.47;;;10.57;58.38
12757;BME280;31601;48.042;12.240;2023-03-25T03:35:52;95660.50;;;10.62;58.01
12757;BME280;31601;48.042;12.240;2023-03-25T03:38:23;95661.50;;;10.54;58.29
12757;BME280;31601;48.042;12.240;2023-03-25T03:40:57;95659.91;;;10.60;58.25
12757;BME280;31601;48.042;12.240;2023-03-25T03:43:29;95668.94;;;10.51;57.69
12757;BME280;31601;48.042;12.240;2023-03-25T03:45:59;95672.63;;;10.63;57.83
12757;BME280;31601;48.042;12.240;2023-03-25T03:48:30;95653.47;;;10.76;57.07
12757;BME280;31601;48.042;12.240;2023-03-25T03:51:01;95666.00;;;10.74;57.00
12757;BME280;31601;48.042;12.240;2023-03-25T03:53:33;95660.50;;;10.69;57.93
12757;BME280;31601;48.042;12.240;2023-03-25T03:56:06;95665.16;;;10.73;57.35
12757;BME280;31601;48.042;12.240;2023-03-25T03:58:36;95668.22;;;10.84;56.82
12757;BME280;31601;48.042;12.240;2023-03-25T04:01:07;95682.38;;;10.89;56.98
12757;BME280;31601;48.042;12.240;2023-03-25T04:03:39;95669.03;;;10.84;57.40
12757;BME280;31601;48.042;12.240;2023-03-25T04:06:13;95672.66;;;10.83;56.99
12757;BME280;31601;48.042;12.240;2023-03-25T04:08:49;95679.28;;;10.66;57.21
12757;BME280;31601;48.042;12.240;2023-03-25T04:11:21;95684.75;;;10.84;56.59
12757;BME280;31601;48.042;12.240;2023-03-25T04:13:51;95679.91;;;10.81;57.16
12757;BME280;31601;48.042;12.240;2023-03-25T04:16:19;95683.56;;;10.87;56.74
12757;BME280;31601;48.042;12.240;2023-03-25T04:18:45;95692.03;;;10.75;57.17
12757;BME280;31601;48.042;12.240;2023-03-25T04:21:12;95697.63;;;10.66;57.36
12757;BME280;31601;48.042;12.240;2023-03-25T04:23:39;95692.53;;;10.44;57.62
12757;BME280;31601;48.042;12.240;2023-03-25T04:26:06;95693.34;;;10.45;57.80
12757;BME280;31601;48.042;12.240;2023-03-25T04:28:34;95689.53;;;10.54;57.10
12757;BME280;31601;48.042;12.240;2023-03-25T04:31:01;95684.88;;;10.43;57.94
12757;BME280;31601;48.042;12.240;2023-03-25T04:33:30;95691.09;;;10.35;58.10
12757;BME280;31601;48.042;12.240;2023-03-25T04:35:56;95695.13;;;10.37;57.88
12757;BME280;31601;48.042;12.240;2023-03-25T04:38:25;95689.63;;;10.32;57.88
12757;BME280;31601;48.042;12.240;2023-03-25T04:40:52;95686.94;;;10.19;58.25
12757;BME280;31601;48.042;12.240;2023-03-25T04:43:18;95678.88;;;10.20;57.85
12757;BME280;31601;48.042;12.240;2023-03-25T04:45:46;95681.28;;;10.15;57.67
12757;BME280;31601;48.042;12.240;2023-03-25T04:48:21;95686.16;;;9.83;57.74
12757;BME280;31601;48.042;12.240;2023-03-25T04:50:50;95685.19;;;9.91;57.13
12757;BME280;31601;48.042;12.240;2023-03-25T04:53:17;95697.88;;;9.88;57.14
12757;BME280;31601;48.042;12.240;2023-03-25T04:55:43;95697.88;;;9.88;57.16
12757;BME280;31601;48.042;12.240;2023-03-25T04:58:12;95698.47;;;9.90;57.08
12757;BME280;31601;48.042;12.240;2023-03-25T05:00:39;95700.78;;;9.71;57.19
12757;BME280;31601;48.042;12.240;2023-03-25T05:03:09;95697.59;;;9.76;56.78
12757;BME280;31601;48.042;12.240;2023-03-25T05:05:37;95699.94;;;9.64;56.69
12757;BME280;31601;48.042;12.240;2023-03-25T05:08:04;95691.94;;;9.72;56.78
12757;BME280;31601;48.042;12.240;2023-03-25T05:10:30;95686.31;;;9.75;56.67
12757;BME280;31601;48.042;12.240;2023-03-25T05:12:57;95682.59;;;9.63;56.95
12757;BME280;31601;48.042;12.240;2023-03-25T05:15:24;95683.41;;;9.63;57.30
12757;BME280;31601;48.042;12.240;2023-03-25T05:17:52;95688.22;;;9.60;57.34
12757;BME280;31601;48.042;12.240;2023-03-25T05:20:20;95685.06;;;9.71;56.89
12757;BME280;31601;48.042;12.240;2023-03-25T05:22:47;95676.44;;;9.77;56.82
12757;BME280;31601;48.042;12.240;2023-03-25T05:25:13;95684.53;;;9.82;56.55
12757;BME280;31601;48.042;12.240;2023-03-25T05:27:40;95678.59;;;9.67;56.21
12757;BME280;31601;48.042;12.240;2023-03-25T05:30:07;95685.91;;;9.78;56.52
12757;BME280;31601;48.042;12.240;2023-03-25T05:32:34;95684.06;;;9.72;56.71
12757;BME280;31601;48.042;12.240;2023-03-25T05:35:02;95678.53;;;9.60;56.97
12757;BME280;31601;48.042;12.240;2023-03-25T05:37:30;95672.09;;;9.56;56.88
12757;BME280;31601;48.042;12.240;2023-03-25T05:39:56;95677.06;;;9.79;56.47
12757;BME280;31601;48.042;12.240;2023-03-25T05:42:23;95674.31;;;9.94;56.14
12757;BME280;31601;48.042;12.240;2023-03-25T05:44:50;95681.97;;;9.96;56.44
12757;BME280;31601;48.042;12.240;2023-03-25T05:47:18;95682.16;;;9.88;56.72
12757;BME280;31601;48.042;12.240;2023-03-25T05:49:46;95684.38;;;9.91;56.66
12757;BME280;31601;48.042;12.240;2023-03-25T05:52:12;95680.41;;;10.01;56.12
12757;BME280;31601;48.042;12.240;2023-03-25T05:54:42;95676.84;;;10.16;56.07
12757;BME280;31601;48.042;12.240;2023-03-25T05:57:10;95673.16;;;10.03;56.61
12757;BME280;31601;48.042;12.240;2023-03-25T05:59:36;95686.44;;;10.02;55.98
12757;BME280;31601;48.042;12.240;2023-03-25T06:02:04;95686.00;;;9.92;55.83
12757;BME280;31601;48.042;12.240;2023-03-25T06:04:32;95698.94;;;10.00;55.79
12757;BME280;31601;48.042;12.240;2023-03-25T06:07:04;95697.22;;;10.20;55.71
12757;BME280;31601;48.042;12.240;2023-03-25T06:09:33;95698.94;;;10.00;55.51
12757;BME280;31601;48.042;12.240;2023-03-25T06:12:01;95700.19;;;10.04;55.79
12757;BME280;31601;48.042;12.240;2023-03-25T06:14:28;95704.66;;;10.10;55.34
12757;BME280;31601;48.042;12.240;2023-03-25T06:16:54;95696.56;;;10.40;55.08
12757;BME280;31601;48.042;12.240;2023-03-25T06:19:21;95687.31;;;10.57;54.25
12757;BME280;31601;48.042;12.240;2023-03-25T06:21:50;95698.28;;;10.74;53.58
12757;BME280;31601;48.042;12.240;2023-03-25T06:24:17;95696.13;;;11.05;53.29
12757;BME280;31601;48.042;12.240;2023-03-25T06:26:44;95701.41;;;11.25;52.11
12757;BME280;31601;48.042;12.240;2023-03-25T06:29:12;95701.41;;;11.45;51.50
12757;BME280;31601;48.042;12.240;2023-03-25T06:31:38;95711.09;;;11.58;51.46
12757;BME280;31601;48.042;12.240;2023-03-25T06:34:04;95712.50;;;11.74;51.04
12757;BME280;31601;48.042;12.240;2023-03-25T06:36:32;95706.25;;;11.75;51.09
12757;BME280;31601;48.042;12.240;2023-03-25T06:38:58;95710.28;;;11.97;49.91
12757;BME280;31601;48.042;12.240;2023-03-25T06:41:25;95708.25;;;11.99;49.92
12757;BME280;31601;48.042;12.240;2023-03-25T06:43:52;95724.03;;;11.73;50.20
12757;BME280;31601;48.042;12.240;2023-03-25T06:46:19;95732.31;;;11.56;50.69
12757;BME280;31601;48.042;12.240;2023-03-25T06:48:46;95740.19;;;11.29;51.60
12757;BME280;31601;48.042;12.240;2023-03-25T06:51:13;95744.22;;;11.25;51.86
12757;BME280;31601;48.042;12.240;2023-03-25T06:53:39;95745.63;;;11.41;51.18
12757;BME280;31601;48.042;12.240;2023-03-25T06:56:06;95739.59;;;11.47;51.32
12757;BME280;31601;48.042;12.240;2023-03-25T06:58:32;95741.84;;;11.57;51.03
12757;BME280;31601;48.042;12.240;2023-03-25T07:00:59;95748.09;;;11.90;49.88
12757;BME280;31601;48.042;12.240;2023-03-25T07:03:31;95750.47;;;12.25;49.80
12757;BME280;31601;48.042;12.240;2023-03-25T07:05:57;95760.59;;;12.21;50.29
12757;BME280;31601;48.042;12.240;2023-03-25T07:08:24;95772.03;;;12.60;48.31
12757;BME280;31601;48.042;12.240;2023-03-25T07:10:50;95777.75;;;13.02;47.50
12757;BME280;31601;48.042;12.240;2023-03-25T07:13:17;95784.38;;;13.12;46.59
12757;BME280;31601;48.042;12.240;2023-03-25T07:15:43;95784.28;;;12.86;46.64
12757;BME280;31601;48.042;12.240;2023-03-25T07:18:10;95784.59;;;12.58;46.20
12757;BME280;31601;48.042;12.240;2023-03-25T07:20:37;95781.22;;;12.24;46.75
12757;BME280;31601;48.042;12.240;2023-03-25T07:23:04;95779.03;;;12.08;47.15
12757;BME280;31601;48.042;12.240;2023-03-25T07:25:30;95783.88;;;11.84;46.68
12757;BME280;31601;48.042;12.240;2023-03-25T07:27:56;95774.59;;;12.08;46.63
12757;BME280;31601;48.042;12.240;2023-03-25T07:30:23;95791.53;;;11.52;48.05
12757;BME280;31601;48.042;12.240;2023-03-25T07:32:49;95795.78;;;11.53;48.42
12757;BME280;31601;48.042;12.240;2023-03-25T07:35:16;95790.88;;;11.30;48.80
12757;BME280;31601;48.042;12.240;2023-03-25T07:37:44;95798.97;;;11.28;48.28
12757;BME280;31601;48.042;12.240;2023-03-25T07:40:11;95801.81;;;11.40;48.78
12757;BME280;31601;48.042;12.240;2023-03-25T07:42:38;95803.47;;;11.55;49.24
12757;BME280;31601;48.042;12.240;2023-03-25T07:45:05;95812.13;;;11.55;48.89
12757;BME280;31601;48.042;12.240;2023-03-25T07:47:32;95802.88;;;11.73;49.07
12757;BME280;31601;48.042;12.240;2023-03-25T07:49:59;95807.72;;;11.82;47.70
12757;BME280;31601;48.042;12.240;2023-03-25T07:52:25;95798.25;;;12.02;48.63
12757;BME280;31601;48.042;12.240;2023-03-25T07:54:53;95813.38;;;11.86;48.26
12757;BME280;31601;48.042;12.240;2023-03-25T07:57:19;95805.28;;;11.88;48.52
12757;BME280;31601;48.042;12.240;2023-03-25T07:59:46;95811.34;;;11.61;48.08
12757;BME280;31601;48.042;12.240;2023-03-25T08:02:13;95813.38;;;11.73;49.08
12757;BME280;31601;48.042;12.240;2023-03-25T08:04:40;95819.28;;;12.02;48.75
12757;BME280;31601;48.042;12.240;2023-03-25T08:07:06;95812.19;;;12.22;47.92
12757;BME280;31601;48.042;12.240;2023-03-25T08:09:33;95807.34;;;12.19;48.11
12757;BME280;31601;48.042;12.240;2023-03-25T08:12:01;95816.66;;;12.15;48.11
12757;BME280;31601;48.042;12.240;2023-03-25T08:14:27;95824.34;;;12.16;48.51
12757;BME280;31601;48.042;12.240;2023-03-25T08:16:54;95821.31;;;11.93;48.14
12757;BME280;31601;48.042;12.240;2023-03-25T08:19:20;95835.66;;;12.30;49.48
12757;BME280;31601;48.042;12.240;2023-03-25T08:21:47;95827.13;;;12.48;49.20
12757;BME280;31601;48.042;12.240;2023-03-25T08:24:13;95823.56;;;12.88;48.16
12757;BME280;31601;48.042;12.240;2023-03-25T08:26:40;95826.53;;;13.12;47.48
12757;BME280;31601;48.042;12.240;2023-03-25T08:29:07;95817.94;;;12.78;47.46
12757;BME280;31601;48.042;12.240;2023-03-25T08:31:34;95832.59;;;12.47;47.19
12757;BME280;31601;48.042;12.240;2023-03-25T08:34:03;95824.69;;;12.40;47.48
12757;BME280;31601;48.042;12.240;2023-03-25T08:36:30;95825.31;;;12.49;47.51
12757;BME280;31601;48.042;12.240;2023-03-25T08:38:57;95838.88;;;12.46;46.92
12757;BME280;31601;48.042;12.240;2023-03-25T08:41:24;95820.69;;;12.38;47.48
12757;BME280;31601;48.042;12.240;2023-03-25T08:43:50;95818.25;;;12.23;48.04
12757;BME280;31601;48.042;12.240;2023-03-25T08:46:18;95825.16;;;12.24;48.21
12757;BME280;31601;48.042;12.240;2023-03-25T08:48:44;95828.38;;;12.19;48.09
12757;BME280;31601;48.042;12.240;2023-03-25T08:51:12;95837.66;;;12.22;48.86
12757;BME280;31601;48.042;12.240;2023-03-25T08:53:38;95825.72;;;12.32;49.02
12757;BME280;31601;48.042;12.240;2023-03-25T08:56:05;95828.06;;;12.74;49.37
12757;BME280;31601;48.042;12.240;2023-03-25T08:58:32;95828.34;;;12.46;48.64
12757;BME280;31601;48.042;12.240;2023-03-25T09:00:58;95820.41;;;12.66;48.31
12757;BME280;31601;48.042;12.240;2023-03-25T09:03:26;95829.38;;;12.18;49.19
12757;BME280;31601;48.042;12.240;2023-03-25T09:05:53;95820.50;;;12.19;49.01
12757;BME280;31601;48.042;12.240;2023-03-25T09:08:19;95832.03;;;11.98;49.36
12757;BME280;31601;48.042;12.240;2023-03-25T09:10:46;95813.81;;;12.30;49.63
12757;BME280;31601;48.042;12.240;2023-03-25T09:13:13;95815.25;;;12.19;49.90
12757;BME280;31601;48.042;12.240;2023-03-25T09:15:39;95814.09;;;12.74;49.68
12757;BME280;31601;48.042;12.240;2023-03-25T09:18:06;95815.25;;;12.91;49.81
12757;BME280;31601;48.042;12.240;2023-03-25T09:20:34;95813.91;;;13.27;49.54
12757;BME280;31601;48.042;12.240;2023-03-25T09:23:00;95813.25;;;12.93;49.92
12757;BME280;31601;48.042;12.240;2023-03-25T09:25:27;95796.66;;;12.86;49.47
12757;BME280;31601;48.042;12.240;2023-03-25T09:27:54;95812.81;;;12.96;48.61
12757;BME280;31601;48.042;12.240;2023-03-25T09:30:20;95812.16;;;13.07;49.41
12757;BME280;31601;48.042;12.240;2023-03-25T09:32:46;95805.97;;;12.82;48.92
12757;BME280;31601;48.042;12.240;2023-03-25T09:35:13;95806.63;;;12.70;50.06
12757;BME280;31601;48.042;12.240;2023-03-25T09:37:42;95804.44;;;13.51;47.85
12757;BME280;31601;48.042;12.240;2023-03-25T09:40:11;95798.63;;;13.74;47.03
12757;BME280;31601;48.042;12.240;2023-03-25T09:42:46;95793.44;;;13.61;47.32
12757;BME280;31601;48.042;12.240;2023-03-25T09:45:24;95789.91;;;13.42;48.41
12757;BME280;31601;48.042;12.240;2023-03-25T09:47:57;95789.03;;;12.64;48.67
12757;BME280;31601;48.042;12.240;2023-03-25T09:50:28;95792.13;;;12.28;48.91
12757;BME280;31601;48.042;12.240;2023-03-25T09:53:00;95792.31;;;13.05;49.48
12757;BME280;31601;48.042;12.240;2023-03-25T09:55:32;95796.03;;;13.36;49.11
12757;BME280;31601;48.042;12.240;2023-03-25T09:58:04;95780.56;;;13.07;49.50
12757;BME280;31601;48.042;12.240;2023-03-25T10:00:39;95781.28;;;13.60;48.31
12757;BME280;31601;48.042;12.240;2023-03-25T10:03:13;95781.94;;;13.55;49.21
12757;BME280;31601;48.042;12.240;2023-03-25T10:05:57;95775.31;;;13.71;48.63
12757;BME280;31601;48.042;12.240;2023-03-25T10:08:33;95778.19;;;13.31;48.78
12757;BME280;31601;48.042;12.240;2023-03-25T10:11:05;95775.69;;;12.52;50.63
12757;BME280;31601;48.042;12.240;2023-03-25T10:13:39;95766.41;;;12.43;49.32
12757;BME280;31601;48.042;12.240;2023-03-25T10:16:19;95759.34;;;13.34;48.79
12757;BME280;31601;48.042;12.240;2023-03-25T10:18:57;95761.44;;;13.83;47.56
12757;BME280;31601;48.042;12.240;2023-03-25T10:21:32;95754.38;;;13.19;46.13
12757;BME280;31601;48.042;12.240;2023-03-25T10:24:12;95759.00;;;13.56;46.63
12757;BME280;31601;48.042;12.240;2023-03-25T10:26:44;95748.56;;;13.42;46.14
12757;BME280;31601;48.042;12.240;2023-03-25T10:29:15;95743.00;;;13.83;45.59
12757;BME280;31601;48.042;12.240;2023-03-25T10:31:49;95748.16;;;13.46;45.52
12757;BME280;31601;48.042;12.240;2023-03-25T10:34:18;95739.03;;;13.73;44.80
12757;BME280;31601;48.042;12.240;2023-03-25T10:36:48;95745.13;;;13.92;46.90
12757;BME280;31601;48.042;12.240;2023-03-25T10:39:21;95746.47;;;13.51;44.58
12757;BME280;31601;48.042;12.240;2023-03-25T10:41:50;95726.91;;;13.66;44.87
12757;BME280;31601;48.042;12.240;2023-03-25T10:44:20;95725.94;;;14.04;45.97
12757;BME280;31601;48.042;12.240;2023-03-25T10:46:49;95729.06;;;14.38;44.06
12757;BME280;31601;48.042;12.240;2023-03-25T10:49:19;95723.75;;;14.01;42.97
12757;BME280;31601;48.042;12.240;2023-03-25T10:51:47;95717.66;;;13.56;42.65
12757;BME280;31601;48.042;12.240;2023-03-25T10:54:16;95722.66;;;13.39;45.54
12757;BME280;31601;48.042;12.240;2023-03-25T10:56:47;95712.06;;;13.46;44.94
12757;BME280;31601;48.042;12.240;2023-03-25T10:59:19;95705.81;;;13.66;44.88
12757;BME280;31601;48.042;12.240;2023-03-25T11:01:48;95701.19;;;13.86;42.61
12757;BME280;31601;48.042;12.240;2023-03-25T11:04:18;95702.41;;;13.84;43.26
12757;BME280;31601;48.042;12.240;2023-03-25T11:06:51;95695.97;;;13.54;43.67
12757;BME280;31601;48.042;12.240;2023-03-25T11:09:22;95688.31;;;14.15;44.50
12757;BME280;31601;48.042;12.240;2023-03-25T11:11:51;95673.72;;;14.31;43.79
12757;BME280;31601;48.042;12.240;2023-03-25T11:14:21;95673.13;;;14.47;44.15
12757;BME280;31601;48.042;12.240;2023-03-25T11:16:52;95678.31;;;14.73;43.33
12757;BME280;31601;48.042;12.240;2023-03-25T11:19:24;95676.34;;;14.98;42.06
12757;BME280;31601;48.042;12.240;2023-03-25T11:21:54;95683.69;;;14.96;41.23
12757;BME280;31601;48.042;12.240;2023-03-25T11:24:22;95681.09;;;15.08;40.61
12757;BME280;31601;48.042;12.240;2023-03-25T11:26:53;95674.81;;;15.33;40.09
12757;BME280;31601;48.042;12.240;2023-03-25T11:29:23;95666.75;;;14.85;40.98
12757;BME280;31601;48.042;12.240;2023-03-25T11:31:57;95658.00;;;14.55;41.80
12757;BME280;31601;48.042;12.240;2023-03-25T11:34:24;95651.84;;;14.61;42.74
12757;BME280;31601;48.042;12.240;2023-03-25T11:36:52;95656.91;;;14.44;43.89
12757;BME280;31601;48.042;12.240;2023-03-25T11:39:26;95651.06;;;14.42;43.40
12757;BME280;31601;48.042;12.240;2023-03-25T11:41:56;95662.03;;;15.06;43.19
12757;BME280;31601;48.042;12.240;2023-03-25T11:44:25;95657.28;;;14.66;41.60
12757;BME280;31601;48.042;12.240;2023-03-25T11:46:54;95653.31;;;14.57;42.40
12757;BME280;31601;48.042;12.240;2023-03-25T11:49:22;95654.50;;;14.91;43.13
12757;BME280;31601;48.042;12.240;2023-03-25T11:51:56;95631.22;;;15.00;42.96
12757;BME280;31601;48.042;12.240;2023-03-25T11:54:24;95642.97;;;15.16;40.81
12757;BME280;31601;48.042;12.240;2023-03-25T11:56:53;95630.56;;;14.74;40.92
12757;BME280;31601;48.042;12.240;2023-03-25T11:59:23;95630.91;;;14.66;41.52
12757;BME280;31601;48.042;12.240;2023-03-25T12:01:59;95634.69;;;14.51;41.08
12757;BME280;31601;48.042;12.240;2023-03-25T12:04:27;95636.44;;;14.27;42.83
12757;BME280;31601;48.042;12.240;2023-03-25T12:06:57;95636.69;;;14.86;41.99
12757;BME280;31601;48.042;12.240;2023-03-25T12:09:25;95631.84;;;15.26;42.08
12757;BME280;31601;48.042;12.240;2023-03-25T12:11:59;95635.88;;;15.28;39.84
12757;BME280;31601;48.042;12.240;2023-03-25T12:18:03;95622.31;;;15.72;39.17
12757;BME280;31601;48.042;12.240;2023-03-25T12:20:36;95621.28;;;15.37;39.34
12757;BME280;31601;48.042;12.240;2023-03-25T12:23:14;95619.91;;;15.47;39.89
12757;BME280;31601;48.042;12.240;2023-03-25T12:25:50;95621.63;;;15.41;39.20
12757;BME280;31601;48.042;12.240;2023-03-25T12:28:32;95619.81;;;15.77;40.81
12757;BME280;31601;48.042;12.240;2023-03-25T12:31:09;95624.72;;;15.97;40.59
12757;BME280;31601;48.042;12.240;2023-03-25T12:33:49;95609.56;;;15.69;38.93
12757;BME280;31601;48.042;12.240;2023-03-25T12:36:31;95615.53;;;15.88;39.86
12757;BME280;31601;48.042;12.240;2023-03-25T12:39:16;95616.81;;;15.62;39.07
12757;BME280;31601;48.042;12.240;2023-03-25T12:41:48;95617.47;;;15.33;39.90
12757;BME280;31601;48.042;12.240;2023-03-25T12:44:38;95613.88;;;15.04;40.88
12757;BME280;31601;48.042;12.240;2023-03-25T12:47:20;95601.78;;;14.54;41.60
12757;BME280;31601;48.042;12.240;2023-03-25T12:49:58;95606.16;;;13.93;42.80
12757;BME280;31601;48.042;12.240;2023-03-25T12:52:34;95607.41;;;14.27;43.45
12757;BME280;31601;48.042;12.240;2023-03-25T12:55:36;95609.63;;;14.42;42.91
12757;BME280;31601;48.042;12.240;2023-03-25T12:58:24;95617.56;;;14.42;41.50
12757;BME280;31601;48.042;12.240;2023-03-25T13:00:56;95614.13;;;14.42;42.28
12757;BME280;31601;48.042;12.240;2023-03-25T13:03:48;95606.69;;;14.69;41.42
12757;BME280;31601;48.042;12.240;2023-03-25T13:06:25;95602.44;;;14.68;41.78
12757;BME280;31601;48.042;12.240;2023-03-25T13:08:57;95602.66;;;14.66;41.91
12757;BME280;31601;48.042;12.240;2023-03-25T13:11:29;95605.94;;;14.13;42.87
12757;BME280;31601;48.042;12.240;2023-03-25T13:13:59;95601.25;;;13.59;43.71
12757;BME280;31601;48.042;12.240;2023-03-25T13:16:30;95614.00;;;13.63;44.12